Time;durP1;ratioP1;P1;durP2;ratioP2;P2;SDS_P1;SDS_P2;PMS_P1;PMS_P2;Temp;Humidity;BMP_temperature;BMP_pressure;BME280_temperature;BME280_humidity;BME280_pressure;Samples;Min_cycle;Max_cycle;Signal;HPM_P1;HPM_P2
2021/07/05 00:00:33;;;;;;;11.27;9.43;;;;;;;15.40;80.53;99578.28;5128408;27;20050;-76
2021/07/05 00:03:00;;;;;;;10.80;8.18;;;;;;;15.49;79.71;99571.72;5117654;28;20064;-78
2021/07/05 00:05:27;;;;;;;10.25;7.65;;;;;;;15.47;80.29;99567.53;5118460;27;20047;-81
2021/07/05 00:07:53;;;;;;;11.20;7.22;;;;;;;15.53;80.16;99563.22;5116445;28;20164;-77
2021/07/05 00:10:22;;;;;;;10.75;6.82;;;;;;;15.71;79.24;99569.88;5121076;27;20047;-77
2021/07/05 00:12:50;;;;;;;11.35;8.30;;;;;;;15.62;78.93;99571.03;5118306;27;20056;-78
2021/07/05 00:15:20;;;;;;;9.40;7.03;;;;;;;15.63;79.29;99561.09;5116155;27;20449;-79
2021/07/05 00:17:48;;;;;;;8.98;6.78;;;;;;;15.62;79.21;99564.78;5119959;27;20071;-77
2021/07/05 00:20:15;;;;;;;10.77;7.95;;;;;;;15.60;80.29;99573.09;5130185;27;20043;-80
2021/07/05 00:22:42;;;;;;;13.35;9.63;;;;;;;15.59;79.91;99578.69;5120615;27;20043;-78
2021/07/05 00:25:09;;;;;;;10.63;7.95;;;;;;;15.67;79.68;99586.72;5125534;27;20058;-79
2021/07/05 00:27:36;;;;;;;10.07;8.25;;;;;;;15.57;80.08;99583.44;5114528;27;20100;-79
2021/07/05 00:30:05;;;;;;;9.40;8.02;;;;;;;15.58;80.46;99593.22;5123505;27;20047;-79
2021/07/05 00:32:32;;;;;;;11.93;9.15;;;;;;;15.55;80.67;99580.94;5107550;27;20228;-80
2021/07/05 00:35:00;;;;;;;10.15;7.85;;;;;;;15.53;80.85;99587.56;5122419;27;20054;-77
2021/07/05 00:37:26;;;;;;;10.93;8.73;;;;;;;15.55;81.12;99586.34;5115518;28;20051;-77
2021/07/05 00:39:52;;;;;;;14.65;8.45;;;;;;;15.59;80.96;99587.63;5118894;27;20048;-78
2021/07/05 00:42:19;;;;;;;12.13;8.95;;;;;;;15.57;81.82;99587.00;5120252;27;20039;-78
2021/07/05 00:44:46;;;;;;;9.90;7.80;;;;;;;15.81;81.43;99588.50;5128441;27;20070;-79
2021/07/05 00:47:12;;;;;;;11.13;9.27;;;;;;;15.73;81.68;99588.63;5119780;27;20043;-77
2021/07/05 00:49:39;;;;;;;9.15;7.72;;;;;;;15.74;81.49;99574.06;5117664;27;20056;-78
2021/07/05 00:52:08;;;;;;;10.45;7.70;;;;;;;15.89;81.04;99582.13;5132597;27;20075;-77
2021/07/05 00:54:35;;;;;;;9.73;6.80;;;;;;;16.01;80.75;99580.56;5116621;28;20105;-80
2021/07/05 00:57:02;;;;;;;7.80;6.18;;;;;;;15.99;80.92;99575.34;5115133;28;20423;-78
2021/07/05 00:59:29;;;;;;;10.13;7.18;;;;;;;16.07;80.28;99587.91;5127935;27;20444;-79
2021/07/05 01:01:55;;;;;;;9.75;7.82;;;;;;;16.10;80.52;99579.38;5122127;27;20040;-80
2021/07/05 01:04:22;;;;;;;9.65;7.43;;;;;;;16.30;79.71;99576.84;5109644;27;20104;-81
2021/07/05 01:06:49;;;;;;;8.77;7.25;;;;;;;16.41;79.25;99579.00;5116307;27;20058;-76
2021/07/05 01:09:16;;;;;;;9.95;7.50;;;;;;;16.34;79.61;99580.84;5127868;27;20097;-79
2021/07/05 01:11:43;;;;;;;11.55;7.32;;;;;;;16.31;79.54;99576.63;5120433;27;20054;-79
2021/07/05 01:14:09;;;;;;;9.93;7.07;;;;;;;16.14;80.39;99575.25;5113043;28;20058;-79
2021/07/05 01:16:36;;;;;;;9.57;6.03;;;;;;;16.00;81.00;99585.16;5111843;27;20059;-77
2021/07/05 01:19:03;;;;;;;8.57;6.35;;;;;;;15.93;81.28;99581.53;5113457;28;20048;-77
2021/07/05 01:21:31;;;;;;;8.88;6.55;;;;;;;15.91;81.63;99580.91;5111381;28;20578;-79
2021/07/05 01:23:57;;;;;;;10.55;7.55;;;;;;;15.77;82.12;99576.41;5108403;28;20491;-80
2021/07/05 01:26:23;;;;;;;8.93;7.80;;;;;;;15.62;82.95;99579.16;5107174;27;20047;-79
2021/07/05 01:28:50;;;;;;;8.57;6.78;;;;;;;15.65;82.65;99569.84;5127044;27;20051;-79
2021/07/05 01:31:16;;;;;;;9.88;7.47;;;;;;;15.74;82.27;99568.66;5120807;27;20072;-79
2021/07/05 01:33:43;;;;;;;8.88;7.13;;;;;;;15.56;83.39;99571.78;5114410;27;20067;-80
2021/07/05 01:36:11;;;;;;;10.88;7.43;;;;;;;15.43;84.18;99572.50;5110410;27;20051;-79
2021/07/05 01:38:41;;;;;;;8.50;6.82;;;;;;;15.33;84.43;99577.38;5121778;27;20055;-77
2021/07/05 01:41:07;;;;;;;12.93;8.95;;;;;;;15.26;85.07;99584.56;5117191;27;20039;-82
2021/07/05 01:43:34;;;;;;;10.05;7.75;;;;;;;15.20;85.18;99585.31;5132822;27;20502;-80
2021/07/05 01:46:01;;;;;;;11.23;8.65;;;;;;;15.43;84.38;99588.72;5111252;27;20051;-78
2021/07/05 01:48:28;;;;;;;8.90;7.20;;;;;;;15.29;84.23;99584.19;5109570;28;20104;-79
2021/07/05 01:50:55;;;;;;;12.23;8.32;;;;;;;15.16;85.05;99584.88;5116670;27;20043;-78
2021/07/05 01:53:21;;;;;;;10.05;7.45;;;;;;;15.25;84.82;99580.19;5121690;27;20043;-79
2021/07/05 01:55:49;;;;;;;8.43;6.50;;;;;;;15.29;84.54;99586.91;5116488;27;20486;-79
2021/07/05 01:58:16;;;;;;;9.57;7.07;;;;;;;15.31;84.32;99579.44;5120719;27;20043;-79
2021/07/05 02:00:46;;;;;;;10.82;7.50;;;;;;;15.24;84.61;99581.22;5108619;27;20048;-78
2021/07/05 02:03:14;;;;;;;8.10;6.57;;;;;;;15.33;84.26;99577.38;5127903;27;20050;-79
2021/07/05 02:05:41;;;;;;;9.70;7.60;;;;;;;15.26;84.60;99581.00;5118894;27;20039;-79
2021/07/05 02:08:08;;;;;;;7.45;5.70;;;;;;;15.18;84.99;99590.09;5112120;27;20422;-80
2021/07/05 02:10:37;;;;;;;8.75;6.72;;;;;;;15.15;85.18;99590.44;5102827;27;20073;-79
2021/07/05 02:13:07;;;;;;;8.30;6.28;;;;;;;15.12;85.33;99588.13;5105120;27;20097;-79
2021/07/05 02:15:33;;;;;;;6.88;5.32;;;;;;;15.12;85.38;99588.97;5108004;27;20051;-79
2021/07/05 02:18:00;;;;;;;9.60;6.93;;;;;;;15.20;84.75;99593.44;5117161;27;20438;-80
2021/07/05 02:20:28;;;;;;;7.43;5.97;;;;;;;15.24;84.87;99593.88;5122683;27;20050;-77
2021/07/05 02:22:56;;;;;;;7.82;6.10;;;;;;;15.26;84.50;99592.66;5119207;27;20040;-79
2021/07/05 02:25:26;;;;;;;10.55;7.10;;;;;;;15.28;84.92;99590.63;5120300;27;20048;-78
2021/07/05 02:27:54;;;;;;;11.90;8.50;;;;;;;15.24;85.31;99588.47;5111421;28;20048;-78
2021/07/05 02:30:23;;;;;;;10.40;7.43;;;;;;;15.27;84.96;99597.03;5117133;27;20092;-80
2021/07/05 02:32:51;;;;;;;9.88;7.45;;;;;;;15.28;85.18;99596.03;5102747;28;20055;-80
2021/07/05 02:35:21;;;;;;;10.68;7.80;;;;;;;15.40;84.59;99594.50;5110424;28;20073;-79
2021/07/05 02:37:48;;;;;;;10.05;6.28;;;;;;;15.60;83.35;99589.31;5115721;27;20110;-79
2021/07/05 02:40:18;;;;;;;8.35;6.85;;;;;;;15.65;83.78;99591.47;5127545;27;20040;-78
2021/07/05 02:42:46;;;;;;;8.00;5.43;;;;;;;15.62;83.64;99589.13;5107859;27;20519;-78
2021/07/05 02:45:15;;;;;;;9.10;6.07;;;;;;;15.90;82.41;99595.47;5114647;27;20039;-79
2021/07/05 02:47:43;;;;;;;10.45;6.80;;;;;;;15.85;82.77;99597.06;5121938;27;20047;-79
2021/07/05 02:50:11;;;;;;;8.80;6.50;;;;;;;16.04;81.82;99593.72;5122071;27;20357;-79
2021/07/05 02:52:38;;;;;;;8.98;6.13;;;;;;;16.01;81.82;99596.81;5113115;27;20051;-78
2021/07/05 02:55:06;;;;;;;11.00;6.70;;;;;;;15.96;82.10;99610.06;5121464;27;20108;-78
2021/07/05 02:57:33;;;;;;;8.98;6.85;;;;;;;15.94;82.36;99607.56;5109762;28;20055;-77
2021/07/05 03:00:02;;;;;;;7.88;5.38;;;;;;;16.03;82.05;99603.69;5116510;27;20047;-79
2021/07/05 03:02:30;;;;;;;9.48;6.75;;;;;;;16.06;82.34;99611.41;5117772;27;20051;-74
2021/07/05 03:04:59;;;;;;;8.45;5.90;;;;;;;16.33;80.73;99600.81;5104489;28;20054;-78
2021/07/05 03:07:26;;;;;;;9.88;6.38;;;;;;;16.36;81.08;99597.72;5113895;28;20051;-79
2021/07/05 03:09:53;;;;;;;7.57;5.05;;;;;;;16.57;79.62;99600.34;5110530;27;20044;-77
2021/07/05 03:12:20;;;;;;;8.20;5.93;;;;;;;16.58;79.91;99607.47;5125212;27;20676;-79
2021/07/05 03:14:46;;;;;;;6.75;5.05;;;;;;;16.59;79.83;99600.19;5116737;27;20046;-77
2021/07/05 03:17:13;;;;;;;8.35;5.25;;;;;;;16.57;79.94;99592.22;5124486;27;20043;-78
2021/07/05 03:19:40;;;;;;;7.43;5.25;;;;;;;16.85;78.17;99597.66;5115512;28;20054;-76
2021/07/05 03:22:08;;;;;;;7.50;5.05;;;;;;;16.76;78.89;99592.59;5112593;28;20617;-79
2021/07/05 03:24:34;;;;;;;8.63;5.47;;;;;;;16.97;77.63;99597.91;5115534;28;20153;-78
2021/07/05 03:27:01;;;;;;;6.82;5.22;;;;;;;16.91;78.05;99593.28;5131562;27;20391;-77
2021/07/05 03:29:27;;;;;;;8.50;5.15;;;;;;;16.91;77.87;99593.28;5125728;27;20047;-77
2021/07/05 03:31:54;;;;;;;8.20;5.93;;;;;;;16.88;78.04;99593.69;5122971;27;20040;-77
2021/07/05 03:34:20;;;;;;;7.60;5.18;;;;;;;16.97;77.65;99597.91;5122059;27;20051;-79
2021/07/05 03:36:47;;;;;;;6.95;4.85;;;;;;;16.86;78.37;99604.75;5127711;27;20496;-78
2021/07/05 03:39:15;;;;;;;5.53;4.38;;;;;;;16.84;77.92;99603.28;5120579;27;20058;-76
2021/07/05 03:41:41;;;;;;;5.93;4.68;;;;;;;16.89;77.71;99604.34;5116593;28;20058;-77
2021/07/05 03:44:07;;;;;;;8.52;5.35;;;;;;;16.97;77.31;99602.50;5116970;28;20043;-79
2021/07/05 03:46:35;;;;;;;7.50;3.95;;;;;;;17.05;76.44;99608.59;5116837;28;20092;-79
2021/07/05 03:49:01;;;;;;;6.10;4.15;;;;;;;17.17;76.15;99611.56;5116175;28;20073;-78
2021/07/05 03:51:28;;;;;;;7.70;4.95;;;;;;;17.20;75.89;99614.72;5113534;27;20096;-78
2021/07/05 03:53:54;;;;;;;6.43;4.53;;;;;;;17.15;76.78;99622.59;5131137;27;20111;-79
2021/07/05 03:56:22;;;;;;;7.15;4.55;;;;;;;17.21;76.70;99624.50;5115249;28;20113;-79
2021/07/05 03:58:48;;;;;;;6.50;4.07;;;;;;;17.24;75.69;99629.53;5119605;27;20054;-77
2021/07/05 04:01:15;;;;;;;6.97;4.32;;;;;;;17.23;76.38;99627.84;5110595;28;20054;-77
2021/07/05 04:03:42;;;;;;;6.57;4.25;;;;;;;17.45;75.54;99633.16;5113958;27;20040;-76
2021/07/05 04:06:08;;;;;;;5.65;4.15;;;;;;;17.59;74.62;99634.88;5122700;27;20080;-78
2021/07/05 04:08:35;;;;;;;5.72;4.60;;;;;;;17.62;74.97;99633.63;5122325;27;20051;-76
2021/07/05 04:11:03;;;;;;;7.40;4.05;;;;;;;17.73;74.79;99638.47;5114079;28;20046;-77
2021/07/05 04:13:31;;;;;;;5.38;3.97;;;;;;;17.77;74.65;99648.75;5113315;28;20062;-76
2021/07/05 04:15:58;;;;;;;6.50;3.72;;;;;;;17.81;74.26;99641.84;5113333;27;20097;-79
2021/07/05 04:18:25;;;;;;;7.25;5.07;;;;;;;17.79;74.57;99640.41;5121465;27;20405;-77
2021/07/05 04:20:52;;;;;;;5.47;4.03;;;;;;;17.87;73.94;99644.78;5132156;27;20366;-78
2021/07/05 04:23:20;;;;;;;6.05;3.88;;;;;;;17.87;73.77;99644.78;5118593;27;20059;-76
2021/07/05 04:25:47;;;;;;;6.30;4.20;;;;;;;17.73;74.90;99647.47;5122665;27;20415;-75
2021/07/05 04:28:16;;;;;;;6.47;4.57;;;;;;;17.67;75.19;99642.84;5115896;28;20073;-76
2021/07/05 04:30:45;;;;;;;5.90;3.47;;;;;;;17.75;74.58;99639.94;5117164;27;20410;-76
2021/07/05 04:33:11;;;;;;;5.38;4.22;;;;;;;17.74;74.53;99643.69;5121266;27;20054;-77
2021/07/05 04:35:38;;;;;;;4.50;3.63;;;;;;;17.80;73.80;99642.06;5110022;28;20089;-78
2021/07/05 04:38:06;;;;;;;5.60;4.07;;;;;;;17.94;73.72;99642.91;5117137;27;20047;-77
2021/07/05 04:40:36;;;;;;;6.30;4.07;;;;;;;18.00;73.53;99642.09;5132469;27;20043;-76
2021/07/05 04:43:03;;;;;;;8.90;4.65;;;;;;;17.89;74.22;99646.25;5111946;27;20055;-76
2021/07/05 04:45:30;;;;;;;5.35;3.80;;;;;;;17.81;74.15;99650.00;5113303;27;20039;-77
2021/07/05 04:48:01;;;;;;;6.18;4.53;;;;;;;17.90;73.96;99647.94;5110907;27;20328;-78
2021/07/05 04:50:29;;;;;;;5.68;4.00;;;;;;;17.87;73.68;99647.50;5117576;27;20054;-77
2021/07/05 04:52:55;;;;;;;5.28;4.32;;;;;;;17.90;74.49;99636.25;5113315;27;20535;-77
2021/07/05 04:55:22;;;;;;;7.15;3.50;;;;;;;18.04;73.51;99643.34;5119139;27;20043;-80
2021/07/05 04:57:51;;;;;;;6.57;4.03;;;;;;;17.81;75.18;99641.03;5119321;27;20047;-79
2021/07/05 05:00:20;;;;;;;5.20;3.53;;;;;;;17.76;75.63;99644.38;5110470;27;20051;-78
2021/07/05 05:02:47;;;;;;;6.68;3.67;;;;;;;17.78;75.57;99645.00;5108961;27;20043;-78
2021/07/05 05:05:15;;;;;;;5.22;3.65;;;;;;;17.68;75.65;99643.66;5115226;27;20062;-76
2021/07/05 05:07:41;;;;;;;5.20;3.42;;;;;;;17.71;75.85;99659.56;5112273;28;20043;-78
2021/07/05 05:10:11;;;;;;;6.25;3.40;;;;;;;17.80;74.91;99656.47;5111627;28;20445;-77
2021/07/05 05:12:38;;;;;;;6.57;3.80;;;;;;;17.88;74.40;99649.16;5117304;27;20112;-78
2021/07/05 05:17:42;;;;;;;5.85;3.65;;;;;;;17.87;75.28;99650.19;5059613;28;20045;-66
2021/07/05 05:20:11;;;;;;;6.25;4.07;;;;;;;17.76;75.47;99651.66;5052082;28;20500;-64
2021/07/05 05:22:39;;;;;;;7.35;4.25;;;;;;;17.82;75.79;99654.38;5069648;28;20044;-68
2021/07/05 05:25:07;;;;;;;5.15;3.67;;;;;;;17.84;74.76;99654.16;5089767;28;20059;-66
2021/07/05 05:27:34;;;;;;;5.82;3.75;;;;;;;17.78;75.89;99653.13;5073572;28;20400;-67
2021/07/05 05:30:01;;;;;;;7.50;4.47;;;;;;;17.90;75.24;99649.81;5080440;28;20449;-66
2021/07/05 05:32:28;;;;;;;5.93;4.40;;;;;;;17.96;74.73;99649.81;5086086;28;20494;-66
2021/07/05 05:34:54;;;;;;;8.00;4.55;;;;;;;17.84;76.79;99659.59;5081813;28;20048;-66
2021/07/05 05:37:20;;;;;;;5.70;3.45;;;;;;;17.96;75.81;99655.25;5083186;28;20094;-66
2021/07/05 05:39:48;;;;;;;16.20;4.57;;;;;;;18.06;74.73;99663.00;5088257;28;20047;-66
2021/07/05 05:42:14;;;;;;;6.40;3.67;;;;;;;18.04;75.76;99659.66;5074365;28;20056;-66
2021/07/05 05:44:44;;;;;;;4.55;3.47;;;;;;;18.17;74.08;99665.09;5081324;28;20117;-66
2021/07/05 05:47:10;;;;;;;6.28;3.45;;;;;;;18.17;75.13;99665.09;5078571;28;20523;-66
2021/07/05 05:49:37;;;;;;;6.85;3.80;;;;;;;18.30;73.68;99662.38;5080787;28;20673;-66
2021/07/05 05:52:04;;;;;;;6.32;4.07;;;;;;;18.35;73.70;99667.19;5090289;28;20475;-67
2021/07/05 05:54:30;;;;;;;4.55;3.00;;;;;;;18.40;73.71;99670.97;5081135;28;20040;-66
2021/07/05 05:56:59;;;;;;;7.65;3.88;;;;;;;18.46;72.87;99671.16;5074584;28;20279;-65
2021/07/05 05:59:25;;;;;;;5.90;3.58;;;;;;;18.59;71.65;99677.44;5081563;28;20221;-65
2021/07/05 06:01:51;;;;;;;7.82;3.88;;;;;;;18.64;72.17;99674.13;5081526;28;20048;-66
2021/07/05 06:04:18;;;;;;;5.63;3.72;;;;;;;18.82;71.15;99674.28;5084702;28;20048;-67
2021/07/05 06:06:45;;;;;;;8.20;4.00;;;;;;;18.67;72.53;99676.41;5068857;28;20048;-65
2021/07/05 06:09:13;;;;;;;6.90;3.83;;;;;;;18.95;70.55;99682.47;5070576;28;20052;-65
2021/07/05 06:11:40;;;;;;;13.32;3.92;;;;;;;18.86;71.15;99675.56;5081565;28;20162;-65
2021/07/05 06:14:09;;;;;;;7.18;3.80;;;;;;;18.84;71.85;99674.13;5089181;28;20040;-65
2021/07/05 06:16:36;;;;;;;4.40;3.38;;;;;;;18.97;71.16;99677.63;5093849;28;20054;-66
2021/07/05 06:19:03;;;;;;;6.57;4.00;;;;;;;19.02;71.14;99684.31;5110065;28;20093;-65
2021/07/05 06:21:32;;;;;;;7.18;4.22;;;;;;;18.98;70.24;99682.03;5110111;28;20468;-66
2021/07/05 06:24:00;;;;;;;4.90;3.58;;;;;;;19.12;70.84;99684.72;5108900;28;20460;-66
2021/07/05 06:26:26;;;;;;;5.38;3.80;;;;;;;19.18;70.96;99686.56;5101469;28;20052;-68
2021/07/05 06:28:53;;;;;;;7.07;4.25;;;;;;;19.21;71.55;99688.88;5101690;28;20043;-68
2021/07/05 06:31:20;;;;;;;5.45;3.42;;;;;;;19.15;71.67;99696.00;5100906;28;20457;-67
2021/07/05 06:33:47;;;;;;;8.38;3.67;;;;;;;18.94;72.60;99688.94;5100477;28;20044;-66
2021/07/05 06:36:14;;;;;;;4.88;2.95;;;;;;;19.04;71.89;99690.38;5107312;28;20528;-68
2021/07/05 06:38:41;;;;;;;6.43;3.90;;;;;;;18.93;72.04;99700.84;5110964;28;20104;-66
2021/07/05 06:41:08;;;;;;;6.55;3.50;;;;;;;18.95;72.39;99697.94;5109315;28;20043;-66
2021/07/05 06:43:34;;;;;;;6.18;3.03;;;;;;;19.04;71.33;99703.97;5098228;28;20077;-66
2021/07/05 06:46:01;;;;;;;5.40;3.67;;;;;;;19.19;72.25;99707.31;5097141;28;20094;-66
2021/07/05 06:48:29;;;;;;;6.05;3.08;;;;;;;19.19;71.95;99713.59;5104284;28;20074;-66
2021/07/05 06:50:55;;;;;;;5.25;3.22;;;;;;;19.22;71.88;99712.31;5106513;28;20052;-66
2021/07/05 06:53:21;;;;;;;6.63;3.03;;;;;;;19.28;71.07;99706.84;5104789;28;20445;-66
2021/07/05 06:55:48;;;;;;;6.07;3.58;;;;;;;19.18;71.45;99705.59;5099472;28;20376;-65
2021/07/05 06:58:14;;;;;;;6.50;2.80;;;;;;;19.08;71.34;99702.53;5107572;28;20051;-67
2021/07/05 07:00:40;;;;;;;5.75;3.15;;;;;;;19.22;71.59;99709.59;5105426;28;20168;-68
2021/07/05 07:03:07;;;;;;;4.53;3.20;;;;;;;19.07;73.97;99714.44;5102102;28;20166;-65
2021/07/05 07:05:35;;;;;;;4.28;2.38;;;;;;;19.08;73.94;99716.13;5095626;28;20047;-69
2021/07/05 07:08:01;;;;;;;3.20;2.30;;;;;;;19.05;73.24;99711.06;5109125;28;20053;-65
2021/07/05 07:10:28;;;;;;;7.47;2.92;;;;;;;19.02;73.30;99714.22;5108600;28;20040;-67
2021/07/05 07:12:55;;;;;;;5.63;3.03;;;;;;;18.89;73.54;99707.75;5096586;28;20040;-67
2021/07/05 07:15:27;;;;;;;3.45;2.50;;;;;;;18.96;73.67;99697.72;5092114;28;20101;-66
2021/07/05 07:17:57;;;;;;;4.15;2.70;;;;;;;18.96;74.24;99705.88;5098379;28;20241;-65
2021/07/05 07:20:23;;;;;;;5.32;3.33;;;;;;;18.89;75.38;99702.31;5102679;28;20044;-67
2021/07/05 07:22:51;;;;;;;5.57;3.45;;;;;;;18.85;77.00;99705.69;5108910;28;20100;-66
2021/07/05 07:25:18;;;;;;;5.35;3.17;;;;;;;18.74;75.66;99704.44;5102050;28;20051;-67
2021/07/05 07:27:45;;;;;;;4.28;2.58;;;;;;;18.82;76.12;99706.09;5098219;28;20104;-67
2021/07/05 07:30:13;;;;;;;5.63;3.55;;;;;;;18.85;76.37;99706.53;5103982;28;20047;-67
2021/07/05 07:32:43;;;;;;;7.20;2.85;;;;;;;18.82;75.32;99698.75;5100118;28;20047;-64
2021/07/05 07:35:11;;;;;;;11.82;3.92;;;;;;;18.86;76.41;99701.91;5105257;28;20054;-67
2021/07/05 07:37:40;;;;;;;3.35;2.58;;;;;;;19.10;75.18;99703.97;5100300;28;20036;-66
2021/07/05 07:40:18;;;;;;;4.82;3.53;;;;;;;18.96;76.43;99711.31;5103127;28;20052;-65
2021/07/05 07:42:45;;;;;;;5.60;3.95;;;;;;;18.95;77.37;99716.97;5098397;28;20062;-66
2021/07/05 07:45:12;;;;;;;5.65;3.72;;;;;;;19.08;76.35;99716.13;5106056;28;20487;-67
2021/07/05 07:47:39;;;;;;;5.13;2.80;;;;;;;19.29;75.69;99713.13;5104439;28;20055;-65
2021/07/05 07:50:07;;;;;;;4.28;3.20;;;;;;;19.39;74.58;99716.22;5095448;28;20066;-67
2021/07/05 07:52:34;;;;;;;4.22;2.97;;;;;;;19.33;75.81;99719.81;5105852;28;20044;-67
2021/07/05 07:55:02;;;;;;;4.40;3.60;;;;;;;19.24;75.41;99710.22;5108091;28;21248;-64
2021/07/05 07:57:30;;;;;;;4.80;2.92;;;;;;;19.34;75.49;99713.31;5108978;28;20068;-66
2021/07/05 07:59:56;;;;;;;3.75;2.97;;;;;;;19.22;76.05;99713.16;5103515;28;20093;-66
2021/07/05 08:02:22;;;;;;;6.60;4.05;;;;;;;19.15;75.90;99720.47;5105043;28;20044;-67
2021/07/05 08:04:49;;;;;;;5.75;3.70;;;;;;;19.21;76.11;99716.09;5110431;28;20046;-64
2021/07/05 08:07:15;;;;;;;4.70;3.15;;;;;;;19.24;76.08;99712.94;5110036;28;20436;-66
2021/07/05 08:09:42;;;;;;;6.03;3.97;;;;;;;19.27;74.99;99710.59;5105275;28;20451;-65
2021/07/05 08:12:11;;;;;;;5.68;4.50;;;;;;;19.24;75.59;99702.88;5109631;28;20047;-66
2021/07/05 08:14:39;;;;;;;5.38;3.63;;;;;;;19.32;75.34;99706.44;5103064;28;20054;-67
2021/07/05 08:17:05;;;;;;;5.78;3.80;;;;;;;19.38;75.31;99703.69;5092689;28;20081;-65
2021/07/05 08:19:32;;;;;;;5.35;3.95;;;;;;;19.26;76.75;99703.50;5100968;28;20483;-67
2021/07/05 08:21:58;;;;;;;5.70;3.97;;;;;;;19.58;76.77;99700.09;5100407;28;20453;-68
2021/07/05 08:24:26;;;;;;;5.97;3.50;;;;;;;19.85;72.15;99699.75;5100543;28;20048;-68
2021/07/05 08:26:52;;;;;;;10.13;3.78;;;;;;;19.65;74.81;99709.03;5101301;28;20044;-66
2021/07/05 08:29:18;;;;;;;5.45;3.63;;;;;;;19.88;73.05;99706.63;5107072;28;20056;-66
2021/07/05 08:31:46;;;;;;;4.75;2.85;;;;;;;20.13;72.95;99713.00;5102568;28;20453;-66
2021/07/05 08:34:13;;;;;;;4.72;3.72;;;;;;;20.49;72.30;99711.53;5104266;28;20096;-63
2021/07/05 08:36:40;;;;;;;4.88;3.50;;;;;;;21.03;71.30;99705.38;5106928;28;20100;-62
2021/07/05 08:39:07;;;;;;;6.00;4.53;;;;;;;21.19;70.29;99701.25;5103581;28;20043;-65
2021/07/05 08:41:33;;;;;;;7.60;4.50;;;;;;;21.17;67.74;99711.53;5098799;28;20423;-64
2021/07/05 08:44:01;;;;;;;6.50;4.00;;;;;;;20.92;70.38;99710.72;5106838;28;20058;-67
2021/07/05 08:46:31;;;;;;;7.28;3.78;;;;;;;20.48;70.27;99711.72;5093449;28;20488;-65
2021/07/05 08:49:00;;;;;;;5.07;3.40;;;;;;;20.82;69.54;99710.41;5094497;28;20054;-65
2021/07/05 08:51:26;;;;;;;5.03;4.03;;;;;;;21.05;66.91;99707.88;5100379;28;20055;-66
2021/07/05 08:53:53;;;;;;;4.85;4.30;;;;;;;21.65;68.40;99713.53;5098411;28;20059;-67
2021/07/05 08:56:21;;;;;;;6.47;4.30;;;;;;;22.20;67.35;99702.53;5099262;28;20044;-64
2021/07/05 08:58:48;;;;;;;5.60;4.00;;;;;;;22.13;62.84;99691.69;5098916;28;20450;-66
2021/07/05 09:01:16;;;;;;;4.75;3.80;;;;;;;23.07;63.55;99691.00;5093792;28;20060;-66
2021/07/05 09:03:42;;;;;;;5.75;4.50;;;;;;;23.54;61.80;99680.81;5099174;28;20055;-65
2021/07/05 09:06:13;;;;;;;5.68;4.05;;;;;;;22.83;62.54;99677.31;5099783;28;20044;-66
2021/07/05 09:08:42;;;;;;;4.63;3.65;;;;;;;22.86;61.90;99682.34;5101760;28;20051;-66
2021/07/05 09:11:09;;;;;;;4.43;3.45;;;;;;;22.75;62.57;99686.72;5104161;28;20086;-66
2021/07/05 09:13:46;;;;;;;4.55;3.42;;;;;;;22.58;62.62;99680.25;5101006;28;20464;-64
2021/07/05 09:16:13;;;;;;;5.30;4.35;;;;;;;22.46;63.58;99676.69;5099763;28;20461;-66
2021/07/05 09:18:43;;;;;;;4.78;4.00;;;;;;;21.98;63.87;99684.94;5109531;28;20052;-65
2021/07/05 09:21:16;;;;;;;4.78;3.78;;;;;;;21.57;64.12;99678.38;5100645;28;20055;-64
2021/07/05 09:23:47;;;;;;;4.07;3.50;;;;;;;21.84;63.33;99679.69;5107578;28;20617;-65
2021/07/05 09:26:22;;;;;;;4.55;3.47;;;;;;;22.34;61.23;99673.91;5103485;28;20433;-63
2021/07/05 09:28:51;;;;;;;4.55;3.35;;;;;;;22.71;60.83;99680.03;5103827;28;20055;-65
2021/07/05 09:31:28;;;;;;;4.15;3.20;;;;;;;22.54;61.17;99681.81;5100133;28;20138;-66
2021/07/05 09:33:55;;;;;;;5.82;3.53;;;;;;;22.43;58.83;99683.44;5100405;28;20052;-65
2021/07/05 09:36:24;;;;;;;3.75;2.72;;;;;;;22.71;59.56;99680.03;5108253;28;20039;-65
2021/07/05 09:38:51;;;;;;;4.03;2.75;;;;;;;22.98;60.60;99685.91;5108483;28;20063;-65
2021/07/05 09:41:21;;;;;;;5.32;4.05;;;;;;;22.39;59.89;99684.16;5111188;28;20506;-67
2021/07/05 09:43:53;;;;;;;4.30;3.55;;;;;;;22.56;61.45;99681.56;5111974;28;20040;-66
2021/07/05 09:46:35;;;;;;;4.07;3.30;;;;;;;22.71;62.98;99682.75;5094757;28;20056;-65
2021/07/05 09:49:10;;;;;;;5.85;3.88;;;;;;;22.85;59.53;99677.94;5090900;28;20134;-65
2021/07/05 09:51:38;;;;;;;4.70;3.60;;;;;;;22.51;61.78;99678.72;5098118;28;20068;-66
2021/07/05 09:54:04;;;;;;;5.30;3.80;;;;;;;22.52;59.37;99670.28;5092988;28;20739;-65
2021/07/05 09:56:31;;;;;;;4.10;3.40;;;;;;;22.70;61.06;99674.81;5093685;28;20040;-66
2021/07/05 09:58:59;;;;;;;5.07;3.55;;;;;;;22.66;61.29;99679.09;5095008;28;20163;-64
2021/07/05 10:01:37;;;;;;;5.07;3.40;;;;;;;22.68;61.03;99685.16;5106769;28;20050;-64
2021/07/05 10:04:05;;;;;;;4.35;3.15;;;;;;;23.10;58.05;99685.06;5106366;28;20052;-64
2021/07/05 10:06:41;;;;;;;7.00;3.20;;;;;;;23.40;59.83;99679.44;5106507;28;20042;-66
2021/07/05 10:09:08;;;;;;;7.15;3.28;;;;;;;23.60;56.70;99682.63;5098088;28;20086;-65
2021/07/05 10:11:35;;;;;;;3.47;2.75;;;;;;;24.21;54.99;99673.66;5099208;28;20048;-66
2021/07/05 10:14:14;;;;;;;3.60;2.70;;;;;;;24.11;56.86;99675.38;5107173;28;20062;-66
2021/07/05 10:16:42;;;;;;;5.40;3.10;;;;;;;24.23;56.89;99678.06;5100554;28;20539;-66
2021/07/05 10:19:09;;;;;;;4.07;2.60;;;;;;;24.63;54.90;99677.97;5098968;28;20055;-66
2021/07/05 10:21:36;;;;;;;5.38;2.72;;;;;;;24.92;52.81;99673.19;5100411;28;20109;-66
2021/07/05 10:24:06;;;;;;;4.55;2.95;;;;;;;24.92;53.48;99673.19;5098430;28;20063;-65
2021/07/05 10:26:32;;;;;;;5.35;2.72;;;;;;;24.42;53.11;99679.53;5104143;28;20043;-65
2021/07/05 10:29:00;;;;;;;4.43;2.85;;;;;;;24.85;54.32;99675.28;5094373;28;20438;-65
2021/07/05 10:31:27;;;;;;;4.30;3.08;;;;;;;25.01;52.80;99680.78;5100712;28;20282;-65
2021/07/05 10:33:53;;;;;;;3.40;2.80;;;;;;;25.29;51.33;99668.81;5098764;28;20511;-67
2021/07/05 10:36:22;;;;;;;3.38;1.98;;;;;;;25.83;50.65;99679.97;5109612;28;20036;-64
2021/07/05 10:38:51;;;;;;;3.70;2.40;;;;;;;26.20;49.54;99679.25;5100863;28;20055;-67
2021/07/05 10:41:20;;;;;;;3.72;2.63;;;;;;;25.91;45.92;99665.75;5091315;28;20105;-65
2021/07/05 10:43:52;;;;;;;5.40;2.80;;;;;;;25.59;47.48;99676.63;5098352;28;20051;-66
2021/07/05 10:46:48;;;;;;;4.32;2.35;;;;;;;25.73;47.39;99671.59;5103962;28;20065;-67
2021/07/05 10:49:45;;;;;;;4.82;2.30;;;;;;;25.36;47.76;99668.66;5104755;28;20046;-66
2021/07/05 10:52:16;;;;;;;3.42;2.40;;;;;;;25.33;48.27;99658.97;5092271;28;20051;-66
2021/07/05 10:54:45;;;;;;;2.83;2.10;;;;;;;25.10;48.99;99661.97;5105891;28;20048;-66
2021/07/05 10:57:14;;;;;;;3.83;2.53;;;;;;;24.69;50.30;99658.59;5097892;28;20055;-67
2021/07/05 10:59:43;;;;;;;3.20;2.30;;;;;;;25.19;49.58;99663.19;5105714;28;20051;-69
2021/07/05 11:02:35;;;;;;;3.70;2.40;;;;;;;25.04;50.26;99666.56;5104672;28;20101;-67
2021/07/05 11:05:03;;;;;;;5.03;1.63;;;;;;;25.42;48.85;99655.78;5106000;28;20113;-67
2021/07/05 11:07:44;;;;;;;4.43;2.47;;;;;;;25.42;48.29;99656.63;5091007;28;20048;-66
2021/07/05 11:10:19;;;;;;;3.70;2.35;;;;;;;25.56;48.23;99651.56;5099677;28;20054;-66
2021/07/05 11:12:59;;;;;;;11.10;2.90;;;;;;;25.88;46.22;99648.94;5101532;28;20075;-67
2021/07/05 11:15:48;;;;;;;4.15;1.70;;;;;;;26.30;46.66;99648.28;5099909;28;20048;-67
2021/07/05 11:18:53;;;;;;;3.40;1.88;;;;;;;26.04;44.65;99630.69;5105177;28;20051;-67
2021/07/05 11:21:55;;;;;;;3.58;1.85;;;;;;;25.87;48.22;99634.38;5122286;22;20089;-80
2021/07/05 11:24:21;;;;;;;3.95;1.92;;;;;;;25.16;48.70;99636.25;5122123;27;20054;-77
2021/07/05 11:26:49;;;;;;;5.32;2.13;;;;;;;25.14;47.37;99632.94;5135068;28;20129;-82
2021/07/05 11:29:25;;;;;;;3.97;1.75;;;;;;;24.94;47.66;99635.34;5116944;28;20040;-78
2021/07/05 11:31:53;;;;;;;2.33;1.83;;;;;;;25.38;45.99;99633.50;5122592;27;20055;-78
2021/07/05 11:34:27;;;;;;;2.67;1.83;;;;;;;25.72;47.73;99633.38;5126508;27;20470;-77
2021/07/05 11:37:27;;;;;;;2.53;1.63;;;;;;;25.52;47.19;99632.03;5083297;27;20068;-80
2021/07/05 11:39:55;;;;;;;2.83;1.60;;;;;;;25.71;44.99;99618.81;5072854;28;20130;-80